Weather at Lukla Airport

Public forecast

Using degrees Celsius for public forecast. Weather courtesy of forecast.io.

Closest aviation weather report (METAR) to Lukla Airport

Closest report is Tribhuvan International Airport, 72.9 nm (135.0 km) W.

2023/02/01 19:30 (retrieved 16 minutes ago)

VNKT 011930Z VRB02KT 7000 FEW015 10/05 Q1018 NOSIG

Closest aviation forecast (TAF) to Lukla Airport

Closest forecast is Tribhuvan International Airport, 72.9 nm (135.0 km) W.

2023/02/01 18:00 (retrieved 2 hours ago)

TAF VNKT 011700Z 0118/0218 06003KT 8000 FEW015 BECMG 0200/0202 VRB02KT 4000 BR FEW010 PROB30 0201/0203 2000 BR BECMG 0204/0205 13004KT 5000 HZ FEW015 BECMG 0207/0209 28010KT 8000 FEW020 BECMG 0214/0215 19004KT 6000 FEW015